Time;durP1;ratioP1;P1;durP2;ratioP2;P2;SDS_P1;SDS_P2;PMS_P1;PMS_P2;Temp;Humidity;BMP_temperature;BMP_pressure;BME280_temperature;BME280_humidity;BME280_pressure;Samples;Min_cycle;Max_cycle;Signal;HPM_P1;HPM_P2
2022/09/29 00:00:47;;;;;;;8.07;4.88;;;;;;;;;;6139757;23;20033;-81
2022/09/29 00:03:13;;;;;;;9.00;4.90;;;;;;;;;;6141044;23;20021;-80
2022/09/29 00:05:45;;;;;;;8.25;4.97;;;;;;;;;;6154133;23;20029;-80
2022/09/29 00:08:11;;;;;;;9.75;5.47;;;;;;;;;;6197116;23;20032;-81
2022/09/29 00:10:40;;;;;;;9.55;5.32;;;;;;;;;;6194544;23;20021;-81
2022/09/29 00:13:07;;;;;;;8.27;5.25;;;;;;;;;;6195334;23;20025;-81
2022/09/29 00:15:33;;;;;;;8.60;5.20;;;;;;;;;;6196221;23;20493;-81
2022/09/29 00:17:59;;;;;;;10.73;5.57;;;;;;;;;;6195261;23;20821;-81
2022/09/29 00:20:39;;;;;;;8.88;4.82;;;;;;;;;;6193589;23;20096;-81
2022/09/29 00:23:05;;;;;;;11.93;5.78;;;;;;;;;;6198897;23;20013;-81
2022/09/29 00:25:32;;;;;;;9.80;5.63;;;;;;;;;;6195161;23;20026;-81
2022/09/29 00:27:58;;;;;;;8.20;5.05;;;;;;;;;;6196684;23;20019;-80
2022/09/29 00:30:24;;;;;;;8.20;5.30;;;;;;;;;;6194938;23;20494;-80
2022/09/29 00:32:51;;;;;;;9.77;5.75;;;;;;;;;;6194163;23;20021;-80
2022/09/29 00:35:17;;;;;;;9.45;5.10;;;;;;;;;;6194686;23;20029;-80
2022/09/29 00:37:43;;;;;;;13.75;5.47;;;;;;;;;;6196215;23;20028;-81
2022/09/29 00:40:10;;;;;;;10.55;5.45;;;;;;;;;;6196926;23;20017;-81
2022/09/29 00:42:36;;;;;;;10.13;6.10;;;;;;;;;;6196138;23;20781;-81
2022/09/29 00:45:03;;;;;;;11.07;5.95;;;;;;;;;;6195553;23;20025;-81
2022/09/29 00:47:30;;;;;;;10.75;5.03;;;;;;;;;;6194533;23;20028;-81
2022/09/29 00:50:08;;;;;;;8.75;4.93;;;;;;;;;;6196285;23;20032;-81
2022/09/29 00:52:36;;;;;;;9.60;4.60;;;;;;;;;;6195515;23;20029;-81
2022/09/29 00:55:08;;;;;;;8.50;4.05;;;;;;;;;;6193667;23;20021;-81
2022/09/29 00:57:41;;;;;;;6.63;3.88;;;;;;;;;;6197245;23;20031;-81
2022/09/29 01:00:09;;;;;;;5.65;3.30;;;;;;;;;;6195429;23;20045;-81
2022/09/29 01:02:37;;;;;;;7.00;3.58;;;;;;;;;;6194048;23;20040;-80
2022/09/29 01:05:06;;;;;;;6.55;3.53;;;;;;;;;;6191871;23;20026;-81
2022/09/29 01:07:32;;;;;;;7.75;3.10;;;;;;;;;;6140121;23;20549;-81
2022/09/29 01:09:59;;;;;;;7.32;3.70;;;;;;;;;;6165798;23;20030;-80
2022/09/29 01:12:25;;;;;;;7.20;3.45;;;;;;;;;;6140208;23;20030;-80
2022/09/29 01:14:53;;;;;;;7.63;3.67;;;;;;;;;;6140494;23;20095;-81
2022/09/29 01:17:19;;;;;;;6.88;3.80;;;;;;;;;;6139291;23;20038;-81
2022/09/29 01:20:05;;;;;;;6.72;3.90;;;;;;;;;;6139670;23;20025;-81
2022/09/29 01:22:31;;;;;;;7.78;3.95;;;;;;;;;;6164880;23;20034;-80
2022/09/29 01:25:13;;;;;;;6.20;3.90;;;;;;;;;;6166966;23;20032;-80
2022/09/29 01:27:58;;;;;;;7.60;3.88;;;;;;;;;;6140782;23;20050;-80
2022/09/29 01:30:39;;;;;;;6.47;3.70;;;;;;;;;;6140392;23;20041;-80
2022/09/29 01:33:21;;;;;;;8.18;4.15;;;;;;;;;;6166767;23;20014;-81
2022/09/29 01:35:53;;;;;;;6.43;3.70;;;;;;;;;;6140603;23;20024;-81
2022/09/29 01:38:41;;;;;;;6.95;3.72;;;;;;;;;;6165987;23;20040;-81
2022/09/29 01:41:17;;;;;;;5.93;3.53;;;;;;;;;;6139119;23;20030;-81
2022/09/29 01:43:46;;;;;;;6.40;3.50;;;;;;;;;;6139621;23;20835;-80
2022/09/29 01:46:27;;;;;;;5.95;3.05;;;;;;;;;;6164596;23;20022;-81
2022/09/29 01:48:55;;;;;;;5.18;2.92;;;;;;;;;;6140334;23;20121;-80
2022/09/29 01:51:24;;;;;;;5.53;3.20;;;;;;;;;;6139862;23;20037;-81
2022/09/29 01:53:52;;;;;;;6.05;3.22;;;;;;;;;;6139600;23;20022;-81
2022/09/29 01:56:27;;;;;;;6.25;3.47;;;;;;;;;;6139533;23;21115;-81
2022/09/29 01:58:56;;;;;;;6.75;3.17;;;;;;;;;;6139598;23;20014;-81
2022/09/29 02:01:24;;;;;;;8.63;3.35;;;;;;;;;;6137717;23;20010;-81
2022/09/29 02:03:54;;;;;;;5.93;3.20;;;;;;;;;;6137923;23;20026;-80
2022/09/29 02:06:23;;;;;;;5.55;2.85;;;;;;;;;;6168588;23;20030;-80
2022/09/29 02:08:53;;;;;;;4.55;2.55;;;;;;;;;;6191984;23;20029;-81
2022/09/29 02:11:20;;;;;;;10.13;2.40;;;;;;;;;;6192572;23;20034;-81
2022/09/29 02:13:52;;;;;;;5.43;2.63;;;;;;;;;;6192581;23;20025;-81
2022/09/29 02:16:21;;;;;;;4.63;2.63;;;;;;;;;;6192071;23;20018;-80
2022/09/29 02:18:53;;;;;;;5.20;2.65;;;;;;;;;;6192001;23;20030;-80
2022/09/29 02:21:27;;;;;;;6.03;3.15;;;;;;;;;;6191142;23;20017;-80
2022/09/29 02:23:54;;;;;;;5.15;3.08;;;;;;;;;;6192432;23;20045;-80
2022/09/29 02:26:22;;;;;;;5.95;3.20;;;;;;;;;;6188475;23;20029;-81
2022/09/29 02:28:49;;;;;;;5.88;3.45;;;;;;;;;;6185877;23;20025;-81
2022/09/29 02:31:15;;;;;;;5.57;2.75;;;;;;;;;;6186360;23;20029;-81
2022/09/29 02:33:42;;;;;;;5.35;2.90;;;;;;;;;;6186590;23;20077;-81
2022/09/29 02:36:27;;;;;;;5.35;2.85;;;;;;;;;;6186875;23;20037;-81
2022/09/29 02:39:12;;;;;;;5.88;3.13;;;;;;;;;;6186533;23;20041;-81
2022/09/29 02:41:45;;;;;;;5.88;3.08;;;;;;;;;;6189851;23;20030;-81
2022/09/29 02:44:26;;;;;;;6.72;3.08;;;;;;;;;;6187133;23;20057;-81
2022/09/29 02:46:52;;;;;;;;;;;;;;;;;;6187690;23;20068;-81
2022/09/29 02:49:45;;;;;;;6.22;3.63;;;;;;;;;;6187760;23;43970;-81
2022/09/29 02:52:30;;;;;;;7.53;3.50;;;;;;;;;;6154145;23;20041;-80
2022/09/29 02:55:06;;;;;;;6.50;3.83;;;;;;;;;;6187940;23;20025;-81
2022/09/29 02:57:39;;;;;;;8.07;4.38;;;;;;;;;;6187280;23;20029;-81
2022/09/29 03:00:08;;;;;;;7.75;3.90;;;;;;;;;;6187851;23;20037;-81
2022/09/29 03:02:35;;;;;;;10.27;3.90;;;;;;;;;;6187055;23;20036;-81
2022/09/29 03:05:02;;;;;;;8.38;4.00;;;;;;;;;;6184577;23;20549;-81
2022/09/29 03:07:29;;;;;;;7.85;4.03;;;;;;;;;;6132713;23;20030;-81
2022/09/29 03:09:55;;;;;;;7.70;4.05;;;;;;;;;;6158650;23;20062;-81
2022/09/29 03:12:21;;;;;;;7.40;4.35;;;;;;;;;;6159416;23;20026;-81
2022/09/29 03:14:48;;;;;;;7.50;4.30;;;;;;;;;;6133446;23;20030;-83
2022/09/29 03:17:14;;;;;;;9.40;4.10;;;;;;;;;;6133701;23;20034;-80
2022/09/29 03:19:40;;;;;;;8.75;3.90;;;;;;;;;;6132699;23;20037;-80
2022/09/29 03:22:06;;;;;;;7.35;3.22;;;;;;;;;;6131610;23;20030;-80
2022/09/29 03:24:33;;;;;;;5.82;3.33;;;;;;;;;;6132820;23;20030;-80
2022/09/29 03:26:59;;;;;;;5.55;3.25;;;;;;;;;;6159105;23;20030;-80
2022/09/29 03:29:25;;;;;;;6.97;3.53;;;;;;;;;;6158934;23;20026;-80
2022/09/29 03:31:52;;;;;;;6.53;2.95;;;;;;;;;;6131521;23;20026;-79
2022/09/29 03:34:18;;;;;;;8.00;3.33;;;;;;;;;;6158543;23;20025;-80
2022/09/29 03:36:44;;;;;;;6.88;3.28;;;;;;;;;;6132380;23;20080;-81
2022/09/29 03:39:10;;;;;;;7.07;3.20;;;;;;;;;;6132449;23;20110;-80
2022/09/29 03:41:37;;;;;;;6.70;3.40;;;;;;;;;;6132050;23;20050;-80
2022/09/29 03:44:03;;;;;;;5.60;2.90;;;;;;;;;;6157772;23;20021;-81
2022/09/29 03:46:29;;;;;;;5.47;2.70;;;;;;;;;;6132263;23;20034;-80
2022/09/29 03:48:56;;;;;;;6.00;2.90;;;;;;;;;;6131708;23;20116;-80
2022/09/29 03:51:22;;;;;;;7.05;3.10;;;;;;;;;;6132852;23;21193;-80
2022/09/29 03:53:48;;;;;;;5.10;2.85;;;;;;;;;;6131934;23;20030;-80
2022/09/29 03:56:15;;;;;;;6.90;3.22;;;;;;;;;;6158390;23;20033;-80
2022/09/29 03:58:41;;;;;;;6.57;3.17;;;;;;;;;;6132388;23;20030;-80
2022/09/29 04:01:07;;;;;;;6.38;3.20;;;;;;;;;;6132668;23;20526;-80
2022/09/29 04:03:34;;;;;;;7.50;3.65;;;;;;;;;;6133233;23;20044;-80
2022/09/29 04:06:00;;;;;;;9.00;4.60;;;;;;;;;;6154437;23;20021;-80
2022/09/29 04:08:26;;;;;;;10.20;5.00;;;;;;;;;;6186439;23;20025;-80
2022/09/29 04:10:52;;;;;;;8.38;4.35;;;;;;;;;;6187978;23;20057;-80
2022/09/29 04:13:20;;;;;;;10.77;5.70;;;;;;;;;;6188472;23;20553;-80
2022/09/29 04:15:47;;;;;;;10.57;5.40;;;;;;;;;;6186454;23;20033;-80
2022/09/29 04:18:13;;;;;;;11.25;4.90;;;;;;;;;;6186617;23;20033;-80
2022/09/29 04:20:40;;;;;;;8.40;4.57;;;;;;;;;;6186894;23;20030;-80
2022/09/29 04:23:06;;;;;;;8.90;4.45;;;;;;;;;;6185958;23;20030;-80
2022/09/29 04:25:33;;;;;;;8.07;4.63;;;;;;;;;;6185783;23;20053;-80
2022/09/29 04:27:59;;;;;;;7.60;4.22;;;;;;;;;;6188482;23;20025;-80
2022/09/29 04:30:25;;;;;;;9.73;4.72;;;;;;;;;;6190979;23;20025;-80
2022/09/29 04:32:52;;;;;;;9.00;4.45;;;;;;;;;;6189897;23;20029;-80
2022/09/29 04:35:18;;;;;;;10.07;4.63;;;;;;;;;;6188886;23;20021;-80
2022/09/29 04:37:44;;;;;;;8.35;4.63;;;;;;;;;;6188090;23;20026;-80
2022/09/29 04:40:10;;;;;;;7.78;4.75;;;;;;;;;;6189141;23;20025;-80
2022/09/29 04:42:37;;;;;;;7.75;4.45;;;;;;;;;;6188748;23;20030;-80
2022/09/29 04:45:03;;;;;;;8.57;4.70;;;;;;;;;;6187366;23;20025;-80
2022/09/29 04:47:29;;;;;;;8.73;4.93;;;;;;;;;;6188051;23;20022;-80
2022/09/29 04:49:56;;;;;;;8.20;4.80;;;;;;;;;;6188758;23;20030;-80
2022/09/29 04:52:22;;;;;;;9.95;4.93;;;;;;;;;;6188277;23;20061;-81
2022/09/29 04:54:48;;;;;;;9.00;4.38;;;;;;;;;;6187313;23;20026;-81
2022/09/29 04:57:14;;;;;;;8.77;4.78;;;;;;;;;;6188782;23;20037;-81
2022/09/29 04:59:41;;;;;;;8.38;4.30;;;;;;;;;;6190689;23;20750;-82
2022/09/29 05:02:07;;;;;;;7.45;4.07;;;;;;;;;;6187796;23;20029;-82
2022/09/29 05:04:33;;;;;;;9.55;4.65;;;;;;;;;;6188860;23;20029;-81
2022/09/29 05:06:59;;;;;;;8.20;3.95;;;;;;;;;;6187408;23;20025;-82
2022/09/29 05:09:26;;;;;;;8.60;4.22;;;;;;;;;;6188482;23;20065;-82
2022/09/29 05:11:58;;;;;;;9.32;4.70;;;;;;;;;;6187502;23;20121;-82
2022/09/29 05:14:25;;;;;;;9.60;4.68;;;;;;;;;;6189289;23;20017;-82
2022/09/29 05:16:52;;;;;;;15.73;5.13;;;;;;;;;;6189665;23;20033;-81
2022/09/29 05:19:19;;;;;;;15.98;4.32;;;;;;;;;;6188456;23;20026;-82
2022/09/29 05:21:45;;;;;;;11.00;4.53;;;;;;;;;;6189230;23;20030;-82
2022/09/29 05:24:12;;;;;;;17.60;7.22;;;;;;;;;;6188834;23;20080;-81
2022/09/29 05:26:38;;;;;;;14.05;6.40;;;;;;;;;;6186957;23;20022;-81
2022/09/29 05:29:05;;;;;;;25.55;6.18;;;;;;;;;;6187183;23;20077;-81
2022/09/29 05:31:31;;;;;;;41.80;5.10;;;;;;;;;;6188352;23;20025;-81
2022/09/29 05:33:57;;;;;;;22.95;4.20;;;;;;;;;;6188139;23;20037;-81
2022/09/29 05:36:24;;;;;;;40.38;5.43;;;;;;;;;;6190141;23;20471;-81
2022/09/29 05:38:50;;;;;;;21.70;4.65;;;;;;;;;;6190380;23;20045;-81
2022/09/29 05:41:21;;;;;;;10.82;4.70;;;;;;;;;;6188906;23;20021;-82
2022/09/29 05:43:48;;;;;;;11.75;5.25;;;;;;;;;;6187886;23;20025;-81
2022/09/29 05:46:18;;;;;;;12.55;5.05;;;;;;;;;;6186912;23;20026;-81
2022/09/29 05:48:45;;;;;;;10.57;5.05;;;;;;;;;;6188920;23;20109;-81
2022/09/29 05:51:14;;;;;;;11.45;4.97;;;;;;;;;;6189491;23;20478;-81
2022/09/29 05:53:46;;;;;;;9.90;5.15;;;;;;;;;;6188157;23;20786;-82
2022/09/29 05:56:17;;;;;;;10.82;5.20;;;;;;;;;;6187067;23;20033;-81
2022/09/29 05:58:46;;;;;;;15.07;6.38;;;;;;;;;;6187189;23;20034;-81
2022/09/29 06:01:14;;;;;;;13.52;6.72;;;;;;;;;;6187485;23;20032;-81
2022/09/29 06:03:41;;;;;;;12.13;5.25;;;;;;;;;;6188359;23;20789;-81
2022/09/29 06:06:18;;;;;;;9.63;5.15;;;;;;;;;;6189245;23;20021;-81
2022/09/29 06:08:45;;;;;;;14.10;5.65;;;;;;;;;;6194875;23;20033;-80
2022/09/29 06:11:12;;;;;;;16.77;6.70;;;;;;;;;;6194621;23;20018;-81
2022/09/29 06:13:39;;;;;;;34.75;7.57;;;;;;;;;;6198067;23;20024;-81
2022/09/29 06:16:06;;;;;;;54.67;7.82;;;;;;;;;;6196342;23;20088;-80
2022/09/29 06:18:33;;;;;;;17.48;7.20;;;;;;;;;;6194762;23;20058;-81
2022/09/29 06:21:00;;;;;;;17.92;7.40;;;;;;;;;;6194894;23;20030;-80
2022/09/29 06:23:26;;;;;;;14.18;7.25;;;;;;;;;;6198836;23;20017;-81
2022/09/29 06:26:00;;;;;;;17.38;7.05;;;;;;;;;;6198250;23;20017;-81
2022/09/29 06:28:27;;;;;;;15.48;7.07;;;;;;;;;;6198653;23;20037;-81
2022/09/29 06:30:57;;;;;;;17.23;6.88;;;;;;;;;;6197143;23;20874;-81
2022/09/29 06:33:24;;;;;;;18.92;7.45;;;;;;;;;;6197210;23;20021;-81
2022/09/29 06:38:36;;;;;;;23.02;7.85;;;;;;;;;;6197557;23;20036;-81
2022/09/29 06:41:04;;;;;;;18.17;8.32;;;;;;;;;;6196032;23;20027;-82
2022/09/29 06:43:34;;;;;;;32.10;9.07;;;;;;;;;;6197192;23;20033;-81
2022/09/29 06:46:00;;;;;;;38.42;9.10;;;;;;;;;;6196173;23;20010;-81
2022/09/29 06:48:28;;;;;;;55.65;8.05;;;;;;;;;;6197184;23;20017;-82
2022/09/29 06:50:55;;;;;;;16.77;8.43;;;;;;;;;;6194849;23;20018;-81
2022/09/29 06:53:35;;;;;;;16.05;7.63;;;;;;;;;;6196018;23;20900;-82
2022/09/29 06:56:04;;;;;;;17.92;7.65;;;;;;;;;;6190821;23;20021;-82
2022/09/29 06:58:30;;;;;;;13.27;7.07;;;;;;;;;;6194466;23;20030;-82
2022/09/29 07:00:59;;;;;;;17.35;7.57;;;;;;;;;;6193883;23;20063;-82
2022/09/29 07:03:26;;;;;;;17.52;7.78;;;;;;;;;;6191926;23;20013;-82
2022/09/29 07:05:53;;;;;;;14.50;7.43;;;;;;;;;;6195881;23;20010;-82
2022/09/29 07:08:39;;;;;;;13.88;7.32;;;;;;;;;;6193579;23;20988;-82
2022/09/29 07:11:08;;;;;;;14.93;8.18;;;;;;;;;;6192840;23;20166;-83
2022/09/29 07:13:35;;;;;;;15.38;7.43;;;;;;;;;;6191651;23;20479;-83
2022/09/29 07:16:05;;;;;;;18.00;7.85;;;;;;;;;;6190220;23;20045;-84
2022/09/29 07:18:33;;;;;;;16.50;7.75;;;;;;;;;;6186751;23;20025;-84
2022/09/29 07:21:00;;;;;;;17.48;8.35;;;;;;;;;;6189494;23;20101;-84
2022/09/29 07:23:26;;;;;;;17.90;8.02;;;;;;;;;;6193122;23;20025;-84
2022/09/29 07:25:53;;;;;;;52.05;10.02;;;;;;;;;;6193853;23;20029;-83
2022/09/29 07:28:19;;;;;;;75.80;11.60;;;;;;;;;;6192781;23;20022;-83
2022/09/29 07:30:45;;;;;;;54.92;11.13;;;;;;;;;;6190950;23;20030;-84
2022/09/29 07:33:12;;;;;;;42.78;10.45;;;;;;;;;;6191624;23;20025;-84
2022/09/29 07:35:38;;;;;;;55.25;11.18;;;;;;;;;;6192039;23;20112;-84
2022/09/29 07:38:05;;;;;;;31.60;11.50;;;;;;;;;;6192096;23;20036;-84
2022/09/29 07:40:32;;;;;;;36.17;11.95;;;;;;;;;;6194744;23;20030;-83
2022/09/29 07:42:58;;;;;;;65.03;12.43;;;;;;;;;;6192193;23;20096;-84
2022/09/29 07:45:28;;;;;;;32.97;13.55;;;;;;;;;;6193591;23;20010;-84
2022/09/29 07:47:58;;;;;;;31.20;14.10;;;;;;;;;;6191543;23;20094;-84
2022/09/29 07:50:26;;;;;;;39.10;14.10;;;;;;;;;;6193265;23;20025;-84
2022/09/29 07:52:53;;;;;;;25.45;13.98;;;;;;;;;;6190833;23;20080;-84
2022/09/29 07:55:22;;;;;;;44.97;16.23;;;;;;;;;;6184957;23;20029;-84
2022/09/29 07:57:51;;;;;;;27.80;15.27;;;;;;;;;;6184665;23;20076;-83
2022/09/29 08:00:17;;;;;;;32.22;15.40;;;;;;;;;;6185401;23;20072;-84
2022/09/29 08:02:45;;;;;;;28.80;15.52;;;;;;;;;;6184395;23;20025;-83
2022/09/29 08:05:12;;;;;;;28.13;15.13;;;;;;;;;;6180821;23;20005;-84
2022/09/29 08:07:39;;;;;;;31.10;14.98;;;;;;;;;;6157948;23;20026;-83
2022/09/29 08:10:06;;;;;;;37.90;15.73;;;;;;;;;;6131313;23;20033;-83
2022/09/29 08:12:42;;;;;;;46.15;17.58;;;;;;;;;;6133542;23;20010;-83
2022/09/29 08:15:09;;;;;;;34.55;17.17;;;;;;;;;;6131132;23;20097;-83
2022/09/29 08:17:36;;;;;;;40.33;16.92;;;;;;;;;;6129171;23;20034;-83
2022/09/29 08:20:02;;;;;;;37.58;17.85;;;;;;;;;;6129200;23;20108;-83
2022/09/29 08:22:29;;;;;;;32.40;16.45;;;;;;;;;;6127832;23;20427;-83
2022/09/29 08:24:58;;;;;;;55.28;19.55;;;;;;;;;;6126922;23;20062;-84
2022/09/29 08:27:24;;;;;;;37.30;19.15;;;;;;;;;;6128798;23;20028;-82
2022/09/29 08:29:51;;;;;;;48.53;19.80;;;;;;;;;;6128430;23;20561;-83
2022/09/29 08:32:17;;;;;;;42.72;21.98;;;;;;;;;;6127702;23;20030;-83
2022/09/29 08:34:44;;;;;;;41.95;19.83;;;;;;;;;;6154977;23;20064;-84
2022/09/29 08:37:10;;;;;;;39.50;20.27;;;;;;;;;;6130415;23;20025;-84
2022/09/29 08:39:37;;;;;;;43.53;21.33;;;;;;;;;;6130446;23;20018;-83
2022/09/29 08:42:13;;;;;;;40.58;21.73;;;;;;;;;;6154967;23;20018;-83
2022/09/29 08:45:00;;;;;;;42.75;21.73;;;;;;;;;;6139909;23;20029;-84
2022/09/29 08:47:44;;;;;;;42.60;21.25;;;;;;;;;;6156685;23;20029;-84
2022/09/29 08:50:30;;;;;;;47.33;23.13;;;;;;;;;;6130824;23;20033;-83
2022/09/29 08:52:58;;;;;;;44.63;22.20;;;;;;;;;;6156084;23;20038;-83
2022/09/29 08:55:29;;;;;;;50.05;23.90;;;;;;;;;;6130361;23;20026;-84
2022/09/29 08:57:57;;;;;;;41.85;22.13;;;;;;;;;;6157329;23;20124;-84
2022/09/29 09:00:48;;;;;;;45.92;24.02;;;;;;;;;;6131931;23;20104;-85
2022/09/29 09:03:14;;;;;;;49.15;24.08;;;;;;;;;;6129340;23;20133;-82
2022/09/29 09:05:44;;;;;;;47.47;24.05;;;;;;;;;;6144903;23;20749;-83
2022/09/29 09:08:16;;;;;;;50.45;25.30;;;;;;;;;;6185034;23;20063;-84
2022/09/29 09:10:53;;;;;;;47.25;24.27;;;;;;;;;;6187243;23;20559;-85
2022/09/29 09:13:19;;;;;;;45.97;23.98;;;;;;;;;;6187839;23;20020;-84
2022/09/29 09:16:05;;;;;;;49.22;24.85;;;;;;;;;;6184836;23;20069;-85
2022/09/29 09:18:43;;;;;;;45.88;23.95;;;;;;;;;;6187725;23;20032;-84
2022/09/29 09:21:27;;;;;;;41.25;23.10;;;;;;;;;;6183935;23;20104;-83
2022/09/29 09:24:04;;;;;;;41.85;23.40;;;;;;;;;;6185558;23;20025;-79
2022/09/29 09:26:41;;;;;;;47.53;25.58;;;;;;;;;;6184402;23;20470;-81
2022/09/29 09:29:13;;;;;;;44.75;24.10;;;;;;;;;;6182792;23;20021;-83
2022/09/29 09:31:51;;;;;;;46.17;24.80;;;;;;;;;;6184727;23;20784;-82
2022/09/29 09:34:25;;;;;;;40.33;23.63;;;;;;;;;;6182439;23;20025;-82
2022/09/29 09:37:10;;;;;;;41.30;23.17;;;;;;;;;;6184077;23;20522;-83
2022/09/29 09:39:46;;;;;;;44.27;24.30;;;;;;;;;;6184222;23;20025;-79
2022/09/29 09:42:14;;;;;;;40.38;24.08;;;;;;;;;;6184999;23;20036;-80
2022/09/29 09:44:43;;;;;;;40.90;23.25;;;;;;;;;;6185405;23;20032;-80
2022/09/29 09:47:15;;;;;;;42.30;24.60;;;;;;;;;;6184286;23;20037;-80
2022/09/29 09:49:44;;;;;;;37.53;22.92;;;;;;;;;;6182345;23;20056;-81
2022/09/29 09:52:10;;;;;;;39.70;23.35;;;;;;;;;;6182486;23;20021;-80
2022/09/29 09:54:45;;;;;;;40.03;23.38;;;;;;;;;;6183654;23;20025;-80
2022/09/29 09:57:30;;;;;;;38.05;22.27;;;;;;;;;;6183367;23;20035;-80
2022/09/29 10:00:03;;;;;;;36.78;22.10;;;;;;;;;;6182640;23;20036;-79
2022/09/29 10:02:29;;;;;;;34.83;21.48;;;;;;;;;;6183696;23;20040;-80
2022/09/29 10:04:56;;;;;;;36.70;22.63;;;;;;;;;;6183711;23;20018;-79
2022/09/29 10:07:24;;;;;;;34.58;22.50;;;;;;;;;;6128109;23;20018;-80
2022/09/29 10:09:50;;;;;;;35.38;22.33;;;;;;;;;;6152787;23;20021;-79
2022/09/29 10:12:18;;;;;;;37.63;22.55;;;;;;;;;;6154105;23;20183;-80
2022/09/29 10:14:58;;;;;;;35.47;21.90;;;;;;;;;;6126900;23;20041;-80
2022/09/29 10:17:28;;;;;;;35.72;22.63;;;;;;;;;;6128774;23;20901;-81
2022/09/29 10:20:04;;;;;;;33.67;21.45;;;;;;;;;;6155522;23;20943;-80
2022/09/29 10:22:31;;;;;;;33.10;21.13;;;;;;;;;;6129072;23;20037;-81
2022/09/29 10:25:12;;;;;;;34.17;21.45;;;;;;;;;;6126755;23;20022;-81
2022/09/29 10:27:40;;;;;;;32.25;20.05;;;;;;;;;;6154134;23;20026;-79
2022/09/29 10:30:22;;;;;;;32.60;20.02;;;;;;;;;;6153219;23;20034;-80
2022/09/29 10:32:50;;;;;;;29.30;20.20;;;;;;;;;;6155159;23;20069;-83
2022/09/29 10:35:21;;;;;;;32.17;21.08;;;;;;;;;;6129515;23;20093;-82
2022/09/29 10:37:51;;;;;;;30.30;19.33;;;;;;;;;;6128819;23;20037;-80
2022/09/29 10:40:21;;;;;;;28.27;18.70;;;;;;;;;;6128523;23;20450;-80
2022/09/29 10:42:49;;;;;;;27.30;18.10;;;;;;;;;;6154138;23;20037;-79
2022/09/29 10:45:23;;;;;;;23.05;15.05;;;;;;;;;;6154065;23;20025;-79
2022/09/29 10:48:04;;;;;;;27.58;17.63;;;;;;;;;;6153905;23;20156;-82
2022/09/29 10:50:53;;;;;;;23.42;16.33;;;;;;;;;;6154476;23;20952;-81
2022/09/29 10:53:32;;;;;;;25.05;15.80;;;;;;;;;;6129611;23;20036;-79
2022/09/29 10:56:00;;;;;;;25.98;16.02;;;;;;;;;;6154426;23;20798;-79
2022/09/29 10:58:32;;;;;;;22.95;15.90;;;;;;;;;;6129046;23;20030;-79
2022/09/29 11:01:19;;;;;;;20.55;14.15;;;;;;;;;;6156261;23;20094;-79
2022/09/29 11:03:51;;;;;;;20.80;13.77;;;;;;;;;;6155869;23;20042;-82
2022/09/29 11:06:24;;;;;;;21.80;14.43;;;;;;;;;;6160631;23;20035;-79
2022/09/29 11:09:17;;;;;;;21.27;14.07;;;;;;;;;;6188607;23;20025;-79
2022/09/29 11:11:46;;;;;;;15.32;9.63;;;;;;;;;;6172117;23;20013;-79
2022/09/29 11:14:23;;;;;;;14.77;8.07;;;;;;;;;;6187490;23;20498;-80
2022/09/29 11:16:54;;;;;;;14.50;8.70;;;;;;;;;;6188172;23;20028;-80
2022/09/29 11:19:21;;;;;;;17.67;10.05;;;;;;;;;;6187152;23;20036;-81
2022/09/29 11:21:50;;;;;;;18.23;10.55;;;;;;;;;;6185562;23;20032;-81
2022/09/29 11:24:36;;;;;;;19.10;10.30;;;;;;;;;;6185694;23;20537;-80
2022/09/29 11:27:12;;;;;;;16.20;9.75;;;;;;;;;;6186704;23;20032;-79
2022/09/29 11:29:38;;;;;;;16.27;9.80;;;;;;;;;;6186317;23;20084;-81
2022/09/29 11:32:23;;;;;;;23.20;9.35;;;;;;;;;;6182583;23;20034;-80
2022/09/29 11:34:58;;;;;;;15.00;9.27;;;;;;;;;;6185209;23;20029;-83
2022/09/29 11:37:38;;;;;;;15.48;8.90;;;;;;;;;;6184157;23;20497;-80
2022/09/29 11:40:31;;;;;;;10.38;6.32;;;;;;;;;;6184121;23;20486;-80
2022/09/29 11:43:21;;;;;;;9.98;5.70;;;;;;;;;;6179921;23;20029;-79
2022/09/29 11:45:55;;;;;;;10.60;6.00;;;;;;;;;;6186960;23;20026;-81
2022/09/29 11:48:25;;;;;;;10.57;6.10;;;;;;;;;;6187866;23;21176;-79
2022/09/29 11:50:55;;;;;;;8.57;4.57;;;;;;;;;;6184035;23;20029;-79
2022/09/29 11:53:39;;;;;;;7.70;4.57;;;;;;;;;;6184015;23;20085;-81
2022/09/29 11:56:11;;;;;;;9.20;4.75;;;;;;;;;;6183910;23;20029;-80
2022/09/29 11:58:39;;;;;;;10.13;5.20;;;;;;;;;;6184972;23;20037;-82
2022/09/29 12:01:25;;;;;;;10.82;5.53;;;;;;;;;;6183782;23;20016;-81
2022/09/29 12:04:14;;;;;;;8.50;5.03;;;;;;;;;;6184757;23;20017;-83
2022/09/29 12:06:54;;;;;;;7.22;4.10;;;;;;;;;;6170310;23;20037;-81
2022/09/29 12:09:39;;;;;;;8.85;3.60;;;;;;;;;;6187402;23;20418;-80
2022/09/29 12:12:05;;;;;;;6.82;4.20;;;;;;;;;;6185414;23;20093;-81
2022/09/29 12:15:11;;;;;;;6.40;3.45;;;;;;;;;;6185864;23;20061;-82
2022/09/29 12:17:40;;;;;;;8.63;5.00;;;;;;;;;;6186156;23;20498;-83
2022/09/29 12:20:17;;;;;;;9.95;5.32;;;;;;;;;;6182897;23;20026;-80
2022/09/29 12:22:44;;;;;;;8.82;5.43;;;;;;;;;;6186866;23;20033;-81
2022/09/29 12:25:14;;;;;;;10.32;4.57;;;;;;;;;;6185526;23;20056;-80
2022/09/29 12:27:41;;;;;;;6.88;3.50;;;;;;;;;;6185970;23;20029;-80
2022/09/29 12:30:17;;;;;;;6.13;2.97;;;;;;;;;;6188818;23;20026;-80
2022/09/29 12:32:50;;;;;;;7.68;3.85;;;;;;;;;;6184037;23;20105;-82
2022/09/29 12:35:16;;;;;;;6.68;3.85;;;;;;;;;;6186581;23;20033;-86
2022/09/29 12:38:09;;;;;;;6.68;2.70;;;;;;;;;;6188043;23;20381;-85
2022/09/29 12:40:40;;;;;;;6.22;2.90;;;;;;;;;;6154224;23;20031;-82
2022/09/29 12:43:16;;;;;;;6.97;3.78;;;;;;;;;;6187270;23;20020;-81
2022/09/29 12:45:47;;;;;;;6.38;3.30;;;;;;;;;;6189187;23;20029;-81
2022/09/29 12:48:32;;;;;;;6.60;3.50;;;;;;;;;;6190886;23;20027;-84
2022/09/29 12:51:01;;;;;;;18.92;4.57;;;;;;;;;;6188815;23;20028;-80
2022/09/29 12:53:32;;;;;;;6.20;4.05;;;;;;;;;;6187537;23;20022;-80
2022/09/29 12:56:04;;;;;;;7.80;4.30;;;;;;;;;;6186746;23;20033;-80
2022/09/29 12:58:42;;;;;;;8.95;4.50;;;;;;;;;;6184596;23;20029;-80
2022/09/29 13:01:17;;;;;;;5.93;4.00;;;;;;;;;;6182854;23;20029;-81
2022/09/29 13:04:03;;;;;;;8.93;4.47;;;;;;;;;;6184395;23;20035;-80
2022/09/29 13:06:47;;;;;;;5.95;3.97;;;;;;;;;;6167115;23;20033;-81
2022/09/29 13:09:32;;;;;;;8.52;4.40;;;;;;;;;;6155900;23;20085;-81
2022/09/29 13:12:11;;;;;;;7.03;3.50;;;;;;;;;;6131181;23;20999;-80
2022/09/29 13:14:46;;;;;;;5.97;3.80;;;;;;;;;;6131967;23;20093;-80
2022/09/29 13:17:31;;;;;;;6.20;3.65;;;;;;;;;;6131706;23;20030;-83
2022/09/29 13:19:58;;;;;;;7.30;3.33;;;;;;;;;;6131548;23;20050;-81
2022/09/29 13:22:27;;;;;;;6.20;3.03;;;;;;;;;;6157987;23;20033;-80
2022/09/29 13:25:00;;;;;;;5.40;2.67;;;;;;;;;;6158037;23;20061;-82
2022/09/29 13:27:36;;;;;;;4.65;2.72;;;;;;;;;;6132321;23;20022;-82
2022/09/29 13:30:12;;;;;;;5.80;3.15;;;;;;;;;;6158249;23;20037;-83
2022/09/29 13:32:40;;;;;;;6.28;3.03;;;;;;;;;;6132396;23;20041;-82
2022/09/29 13:35:11;;;;;;;6.90;3.70;;;;;;;;;;6157879;23;20036;-84
2022/09/29 13:37:52;;;;;;;5.95;3.17;;;;;;;;;;6132049;23;20030;-82
2022/09/29 13:40:20;;;;;;;6.50;2.88;;;;;;;;;;6130980;23;20026;-81
2022/09/29 13:42:48;;;;;;;5.70;3.00;;;;;;;;;;6132735;23;20033;-82
2022/09/29 13:45:14;;;;;;;6.05;3.03;;;;;;;;;;6133162;23;20022;-81
2022/09/29 13:47:45;;;;;;;6.78;2.83;;;;;;;;;;6135477;23;20032;-83
2022/09/29 13:50:30;;;;;;;6.85;2.83;;;;;;;;;;6160159;23;20037;-81
2022/09/29 13:53:15;;;;;;;7.10;2.92;;;;;;;;;;6159930;23;20072;-79
2022/09/29 13:55:52;;;;;;;5.40;2.50;;;;;;;;;;6132763;23;20034;-84
2022/09/29 13:58:22;;;;;;;6.22;2.65;;;;;;;;;;6134784;23;20041;-79
2022/09/29 14:00:49;;;;;;;6.28;2.83;;;;;;;;;;6133724;23;20029;-80
2022/09/29 14:03:27;;;;;;;7.35;3.53;;;;;;;;;;6132698;23;20738;-80
2022/09/29 14:05:55;;;;;;;6.65;3.13;;;;;;;;;;6153884;23;21259;-82
2022/09/29 14:08:23;;;;;;;5.88;2.78;;;;;;;;;;6189487;23;20026;-81
2022/09/29 14:10:59;;;;;;;6.15;2.97;;;;;;;;;;6191779;23;20025;-81
2022/09/29 14:13:26;;;;;;;6.75;3.38;;;;;;;;;;6186690;23;20030;-82
2022/09/29 14:15:52;;;;;;;5.22;2.45;;;;;;;;;;6186394;23;20030;-81
2022/09/29 14:18:18;;;;;;;5.63;2.50;;;;;;;;;;6185879;23;20053;-81
2022/09/29 14:21:02;;;;;;;8.45;3.03;;;;;;;;;;6185800;23;20789;-81
2022/09/29 14:23:44;;;;;;;7.13;3.35;;;;;;;;;;6185414;23;20032;-81
2022/09/29 14:26:29;;;;;;;6.22;3.05;;;;;;;;;;6184559;23;20029;-80
2022/09/29 14:28:56;;;;;;;5.65;3.03;;;;;;;;;;6183120;23;20046;-80
2022/09/29 14:31:22;;;;;;;5.80;2.90;;;;;;;;;;6184135;23;20021;-80
2022/09/29 14:33:51;;;;;;;7.30;2.85;;;;;;;;;;6184485;23;20034;-80
2022/09/29 14:36:19;;;;;;;8.02;3.08;;;;;;;;;;6186670;23;20376;-80
2022/09/29 14:38:48;;;;;;;8.98;3.30;;;;;;;;;;6184525;23;20026;-80
2022/09/29 14:41:39;;;;;;;8.60;3.80;;;;;;;;;;6186009;23;20045;-80
2022/09/29 14:44:05;;;;;;;;;;;;;;;;;;6185456;23;20017;-80
2022/09/29 14:52:15;;;;;;;5.43;2.80;;;;;;;;;;6186359;23;20837;-81
2022/09/29 14:54:44;;;;;;;6.80;3.05;;;;;;;;;;6183743;23;20025;-81
2022/09/29 14:57:14;;;;;;;5.22;2.97;;;;;;;;;;6183465;23;20069;-81
2022/09/29 14:59:41;;;;;;;4.47;2.13;;;;;;;;;;6184993;23;20021;-81
2022/09/29 15:02:40;;;;;;;4.88;2.30;;;;;;;;;;6184439;23;20037;-81
2022/09/29 15:05:15;;;;;;;5.97;2.80;;;;;;;;;;6134582;23;20458;-81